Columbia Falls, MT

11:57 AM MDT on September 30, 2014 (GMT -0600)
Cut Bank Municipal | Change Station
CLOSE
Current Station
Airport
Location: Cut Bank,
Elevation: 3855 ft
Nearby Weather Stations

Elev 3855 ft 48.61 °N, 112.38 °W | Updated 1 hour ago

Rain
Rain
64 °F
Feels Like 64 °F
N
25
Wind Variable Wind from West
Gusts 32 mph

Today
High -- | Low -- °F
--% Chance of Precip.
Yesterday
High -- | Low -- °F
Precip. -- in
7:35 AM 7:17 PM
Waxing Crescent, 38% visible
Pressure 29.61 in
Visibility 10.0 miles
Clouds Few 12000 ft
Dew Point 41 °F
Humidity 43%
Rainfall 0.00 in
Snow Depth 0 in , 3 in , 0 in
UV 3 out of 12
Pollen 1.10 out of 12
Air Quality Not available.
Flu Activity Not available.
METAR KCTB 301656Z AUTO 26022G28KT 10SM FEW120 18/05 A2967 RMK AO2 PK WND 27028/1656 SLP025 T01780050

More Conditions Fewer Conditions

Pressure 29.61 in
Visibility 10.0 miles
Clouds Few 12000 ft
Dew Point 41 °F
Humidity 43%
Rainfall 0.00 in
Snow Depth 0 in , 3 in , 0 in
UV 3 out of 12
Pollen 1.10 out of 12
Air Quality Not available.
Flu Activity Not available.
METAR KCTB 301656Z AUTO 26022G28KT 10SM FEW120 18/05 A2967 RMK AO2 PK WND 27028/1656 SLP025 T01780050

More Conditions Fewer Conditions

10-Day Weather Forecast

Almanac

Astronomy

Sep. 30, 2014 Rise Set
Actual Time 7:35 AM MDT 7:17 PM MDT
Civil Twilight 7:03 AM MDT 7:49 PM MDT
Nautical Twilight 6:27 AM MDT 8:25 PM MDT
Astronomical Twilight 5:50 AM MDT 9:02 PM MDT
Moon 2:08 PM MDT 11:31 PM MDT
Length of Visible Light 12h 45m
Length of Day
11h 42m
Tomorrow will be 3m 29s shorter.
Waxing Crescent, 38% of the Moon is Illuminated
Today
Waxing Crescent
Oct 1
First Quarter
Oct 8
Full
Oct 15
Last Quarter
Oct 23
New

Today's Extremes

State Highs State Lows

Community

WunderPhotos

Upload Photos

1,757,693 photos uploaded!

Nearby

Snow Depth

Station Depth Elevation
Divide 0 in 7800 ft
Albro Lake 3 in 8300 ft
Twelvemile Creek 0 in 5600 ft
Mule Creek 1 in 8300 ft
Beagle Springs 0 in 8850 ft

Earthquake Activity

City Distance Mag. Time & Date
Lincoln, Montana 126 miles 3.6 10:42 PM MDT
2014-09-27
Minimum magnitude displayed is 2.5.

Coastal Water Temperatures

Place Temperature
No Stations Reporting

Nearby Weather Stations